Terminal Aerodrome Forecast
Issued by NWS

Home | Current Version | Previous Version | Text Only | Print | Product List | Glossary On
Versions: 1 2 3 4 5 6 7 8 9 10 11 12 13 14 15 16 17 18 19 20 21 22 23 24 25 26 27
000
FTUS44 KOUN 202340
TAFHBR
TAF
KHBR 202340Z 2100/2124 19010KT P6SM SCT015 OVC023
     FM210600 18011KT 3SM BR OVC015
     FM210900 18013KT 3SM -DZ BR OVC008
     FM211100 18013KT 1SM -DZ BR OVC003
     FM211700 18013KT 3SM BR OVC008=

USA.gov is the U.S. government's official web portal to all federal, state and local government web resources and services.